sensor_id;sensor_type;location;lat;lon;timestamp;P1;durP1;ratioP1;P2;durP2;ratioP2
72926;SDS011;61071;51.618;19.388;2023-06-14T00:02:11;3.40;;;3.00;;
72926;SDS011;61071;51.618;19.388;2023-06-14T00:04:37;3.83;;;3.03;;
72926;SDS011;61071;51.618;19.388;2023-06-14T00:07:04;3.22;;;2.92;;
72926;SDS011;61071;51.618;19.388;2023-06-14T00:09:34;4.60;;;3.53;;
72926;SDS011;61071;51.618;19.388;2023-06-14T00:12:00;3.15;;;2.85;;
72926;SDS011;61071;51.618;19.388;2023-06-14T00:14:25;3.53;;;3.22;;
72926;SDS011;61071;51.618;19.388;2023-06-14T00:16:51;3.05;;;2.75;;
72926;SDS011;61071;51.618;19.388;2023-06-14T00:19:23;3.35;;;2.63;;
72926;SDS011;61071;51.618;19.388;2023-06-14T00:21:50;3.15;;;2.85;;
72926;SDS011;61071;51.618;19.388;2023-06-14T00:24:16;5.18;;;3.47;;
72926;SDS011;61071;51.618;19.388;2023-06-14T00:26:42;4.00;;;3.40;;
72926;SDS011;61071;51.618;19.388;2023-06-14T00:29:08;3.83;;;3.42;;
72926;SDS011;61071;51.618;19.388;2023-06-14T00:31:33;3.70;;;3.05;;
72926;SDS011;61071;51.618;19.388;2023-06-14T00:33:58;3.75;;;2.80;;
72926;SDS011;61071;51.618;19.388;2023-06-14T00:36:24;3.20;;;2.90;;
72926;SDS011;61071;51.618;19.388;2023-06-14T00:38:49;4.03;;;3.03;;
72926;SDS011;61071;51.618;19.388;2023-06-14T00:41:15;4.10;;;3.00;;
72926;SDS011;61071;51.618;19.388;2023-06-14T00:43:40;3.30;;;3.00;;
72926;SDS011;61071;51.618;19.388;2023-06-14T00:46:05;3.83;;;2.92;;
72926;SDS011;61071;51.618;19.388;2023-06-14T00:48:31;3.92;;;3.20;;
72926;SDS011;61071;51.618;19.388;2023-06-14T00:50:57;3.83;;;2.97;;
72926;SDS011;61071;51.618;19.388;2023-06-14T00:53:26;3.42;;;3.13;;
72926;SDS011;61071;51.618;19.388;2023-06-14T00:55:52;4.85;;;2.92;;
72926;SDS011;61071;51.618;19.388;2023-06-14T00:58:18;4.30;;;2.70;;
72926;SDS011;61071;51.618;19.388;2023-06-14T01:00:44;4.10;;;3.00;;
72926;SDS011;61071;51.618;19.388;2023-06-14T01:03:10;3.83;;;2.80;;
72926;SDS011;61071;51.618;19.388;2023-06-14T01:05:37;5.32;;;3.25;;
72926;SDS011;61071;51.618;19.388;2023-06-14T01:11:02;3.13;;;2.83;;
72926;SDS011;61071;51.618;19.388;2023-06-14T01:13:40;3.47;;;3.10;;
72926;SDS011;61071;51.618;19.388;2023-06-14T01:16:11;3.72;;;2.83;;
72926;SDS011;61071;51.618;19.388;2023-06-14T01:18:37;4.68;;;3.00;;
72926;SDS011;61071;51.618;19.388;2023-06-14T01:21:03;3.42;;;3.13;;
72926;SDS011;61071;51.618;19.388;2023-06-14T01:23:31;5.13;;;3.17;;
72926;SDS011;61071;51.618;19.388;2023-06-14T01:25:58;4.65;;;3.38;;
72926;SDS011;61071;51.618;19.388;2023-06-14T01:28:25;4.53;;;3.00;;
72926;SDS011;61071;51.618;19.388;2023-06-14T01:30:57;5.07;;;3.45;;
72926;SDS011;61071;51.618;19.388;2023-06-14T01:33:29;6.32;;;3.17;;
72926;SDS011;61071;51.618;19.388;2023-06-14T01:35:57;5.85;;;3.00;;
72926;SDS011;61071;51.618;19.388;2023-06-14T01:38:24;3.63;;;2.97;;
72926;SDS011;61071;51.618;19.388;2023-06-14T01:40:51;6.15;;;2.95;;
72926;SDS011;61071;51.618;19.388;2023-06-14T01:43:21;4.70;;;3.22;;
72926;SDS011;61071;51.618;19.388;2023-06-14T01:45:49;4.88;;;2.80;;
72926;SDS011;61071;51.618;19.388;2023-06-14T01:48:18;3.83;;;2.78;;
72926;SDS011;61071;51.618;19.388;2023-06-14T01:50:45;5.07;;;3.15;;
72926;SDS011;61071;51.618;19.388;2023-06-14T01:53:11;4.88;;;2.85;;
72926;SDS011;61071;51.618;19.388;2023-06-14T01:55:37;3.15;;;2.85;;
72926;SDS011;61071;51.618;19.388;2023-06-14T01:58:03;5.20;;;3.00;;
72926;SDS011;61071;51.618;19.388;2023-06-14T02:00:29;4.32;;;2.97;;
72926;SDS011;61071;51.618;19.388;2023-06-14T02:02:55;4.18;;;2.72;;
72926;SDS011;61071;51.618;19.388;2023-06-14T02:05:20;4.25;;;2.88;;
72926;SDS011;61071;51.618;19.388;2023-06-14T02:07:46;8.07;;;2.70;;
72926;SDS011;61071;51.618;19.388;2023-06-14T02:10:12;4.07;;;3.40;;
72926;SDS011;61071;51.618;19.388;2023-06-14T02:12:39;4.47;;;3.20;;
72926;SDS011;61071;51.618;19.388;2023-06-14T02:15:05;4.40;;;3.03;;
72926;SDS011;61071;51.618;19.388;2023-06-14T02:17:31;5.80;;;3.50;;
72926;SDS011;61071;51.618;19.388;2023-06-14T02:19:57;7.53;;;3.63;;
72926;SDS011;61071;51.618;19.388;2023-06-14T02:22:23;6.78;;;3.33;;
72926;SDS011;61071;51.618;19.388;2023-06-14T02:24:48;5.93;;;3.35;;
72926;SDS011;61071;51.618;19.388;2023-06-14T02:27:14;4.85;;;3.28;;
72926;SDS011;61071;51.618;19.388;2023-06-14T02:29:39;4.38;;;3.45;;
72926;SDS011;61071;51.618;19.388;2023-06-14T02:32:05;5.07;;;3.42;;
72926;SDS011;61071;51.618;19.388;2023-06-14T02:34:32;7.47;;;3.90;;
72926;SDS011;61071;51.618;19.388;2023-06-14T02:36:59;4.43;;;3.53;;
72926;SDS011;61071;51.618;19.388;2023-06-14T02:39:24;3.90;;;3.45;;
72926;SDS011;61071;51.618;19.388;2023-06-14T02:41:51;4.35;;;3.17;;
72926;SDS011;61071;51.618;19.388;2023-06-14T02:44:19;6.00;;;3.40;;
72926;SDS011;61071;51.618;19.388;2023-06-14T02:46:51;4.70;;;3.30;;
72926;SDS011;61071;51.618;19.388;2023-06-14T02:49:17;7.72;;;3.42;;
72926;SDS011;61071;51.618;19.388;2023-06-14T02:51:42;6.53;;;3.58;;
72926;SDS011;61071;51.618;19.388;2023-06-14T02:54:08;5.45;;;3.60;;
72926;SDS011;61071;51.618;19.388;2023-06-14T02:56:33;6.20;;;3.53;;
72926;SDS011;61071;51.618;19.388;2023-06-14T02:58:59;3.97;;;3.33;;
72926;SDS011;61071;51.618;19.388;2023-06-14T03:01:25;3.88;;;3.40;;
72926;SDS011;61071;51.618;19.388;2023-06-14T03:03:59;4.70;;;3.50;;
72926;SDS011;61071;51.618;19.388;2023-06-14T03:06:28;5.00;;;3.78;;
72926;SDS011;61071;51.618;19.388;2023-06-14T03:08:56;7.75;;;3.90;;
72926;SDS011;61071;51.618;19.388;2023-06-14T03:11:29;9.30;;;3.83;;
72926;SDS011;61071;51.618;19.388;2023-06-14T03:13:57;5.78;;;4.05;;
72926;SDS011;61071;51.618;19.388;2023-06-14T03:16:24;8.95;;;3.80;;
72926;SDS011;61071;51.618;19.388;2023-06-14T03:18:52;5.22;;;4.30;;
72926;SDS011;61071;51.618;19.388;2023-06-14T03:21:18;7.72;;;4.57;;
72926;SDS011;61071;51.618;19.388;2023-06-14T03:23:45;5.45;;;4.30;;
72926;SDS011;61071;51.618;19.388;2023-06-14T03:26:11;6.15;;;4.30;;
72926;SDS011;61071;51.618;19.388;2023-06-14T03:28:40;8.52;;;4.30;;
72926;SDS011;61071;51.618;19.388;2023-06-14T03:31:06;7.63;;;4.30;;
72926;SDS011;61071;51.618;19.388;2023-06-14T03:33:33;4.35;;;3.95;;
72926;SDS011;61071;51.618;19.388;2023-06-14T03:35:59;7.28;;;4.40;;
72926;SDS011;61071;51.618;19.388;2023-06-14T03:38:24;5.78;;;4.47;;
72926;SDS011;61071;51.618;19.388;2023-06-14T03:40:50;5.38;;;4.25;;
72926;SDS011;61071;51.618;19.388;2023-06-14T03:43:15;4.68;;;4.28;;
72926;SDS011;61071;51.618;19.388;2023-06-14T03:45:41;7.70;;;4.50;;
72926;SDS011;61071;51.618;19.388;2023-06-14T03:48:06;6.38;;;4.85;;
72926;SDS011;61071;51.618;19.388;2023-06-14T03:50:33;8.88;;;5.07;;
72926;SDS011;61071;51.618;19.388;2023-06-14T03:52:59;7.10;;;4.65;;
72926;SDS011;61071;51.618;19.388;2023-06-14T03:55:26;10.85;;;5.05;;
72926;SDS011;61071;51.618;19.388;2023-06-14T03:57:52;6.68;;;5.10;;
72926;SDS011;61071;51.618;19.388;2023-06-14T04:00:18;8.68;;;5.68;;
72926;SDS011;61071;51.618;19.388;2023-06-14T04:02:43;8.05;;;5.45;;
72926;SDS011;61071;51.618;19.388;2023-06-14T04:05:09;11.82;;;5.55;;
72926;SDS011;61071;51.618;19.388;2023-06-14T04:07:35;7.53;;;5.35;;
72926;SDS011;61071;51.618;19.388;2023-06-14T04:10:09;6.88;;;5.35;;
72926;SDS011;61071;51.618;19.388;2023-06-14T04:12:36;7.15;;;5.35;;
72926;SDS011;61071;51.618;19.388;2023-06-14T04:15:01;7.88;;;5.82;;
72926;SDS011;61071;51.618;19.388;2023-06-14T04:17:27;7.63;;;5.72;;
72926;SDS011;61071;51.618;19.388;2023-06-14T04:19:53;8.82;;;5.60;;
72926;SDS011;61071;51.618;19.388;2023-06-14T04:22:18;7.05;;;5.47;;
72926;SDS011;61071;51.618;19.388;2023-06-14T04:24:44;9.00;;;5.90;;
72926;SDS011;61071;51.618;19.388;2023-06-14T04:27:09;7.50;;;5.97;;
72926;SDS011;61071;51.618;19.388;2023-06-14T04:29:34;9.05;;;5.57;;
72926;SDS011;61071;51.618;19.388;2023-06-14T04:32:00;6.28;;;5.28;;
72926;SDS011;61071;51.618;19.388;2023-06-14T04:34:26;11.15;;;5.55;;
72926;SDS011;61071;51.618;19.388;2023-06-14T04:36:56;7.90;;;5.25;;
72926;SDS011;61071;51.618;19.388;2023-06-14T04:39:23;8.70;;;5.63;;
72926;SDS011;61071;51.618;19.388;2023-06-14T04:41:50;13.73;;;5.40;;
72926;SDS011;61071;51.618;19.388;2023-06-14T04:44:22;10.93;;;5.90;;
72926;SDS011;61071;51.618;19.388;2023-06-14T04:46:55;9.73;;;6.20;;
72926;SDS011;61071;51.618;19.388;2023-06-14T04:49:23;8.30;;;6.25;;
72926;SDS011;61071;51.618;19.388;2023-06-14T04:51:49;7.80;;;5.72;;
72926;SDS011;61071;51.618;19.388;2023-06-14T04:54:22;14.60;;;6.13;;
72926;SDS011;61071;51.618;19.388;2023-06-14T04:56:50;8.65;;;5.40;;
72926;SDS011;61071;51.618;19.388;2023-06-14T04:59:16;9.20;;;5.72;;
72926;SDS011;61071;51.618;19.388;2023-06-14T05:01:42;8.75;;;5.63;;
72926;SDS011;61071;51.618;19.388;2023-06-14T05:04:13;6.93;;;5.90;;
72926;SDS011;61071;51.618;19.388;2023-06-14T05:06:42;9.75;;;6.20;;
72926;SDS011;61071;51.618;19.388;2023-06-14T05:09:13;7.07;;;6.03;;
72926;SDS011;61071;51.618;19.388;2023-06-14T05:11:40;7.63;;;5.32;;
72926;SDS011;61071;51.618;19.388;2023-06-14T05:14:09;9.88;;;5.68;;
72926;SDS011;61071;51.618;19.388;2023-06-14T05:16:36;8.55;;;5.68;;
72926;SDS011;61071;51.618;19.388;2023-06-14T05:19:02;9.10;;;5.85;;
72926;SDS011;61071;51.618;19.388;2023-06-14T05:21:29;7.68;;;5.68;;
72926;SDS011;61071;51.618;19.388;2023-06-14T05:23:57;13.88;;;5.68;;
72926;SDS011;61071;51.618;19.388;2023-06-14T05:26:22;9.95;;;5.78;;
72926;SDS011;61071;51.618;19.388;2023-06-14T05:28:54;6.57;;;5.70;;
72926;SDS011;61071;51.618;19.388;2023-06-14T05:31:21;8.95;;;5.53;;
72926;SDS011;61071;51.618;19.388;2023-06-14T05:33:50;6.85;;;5.03;;
72926;SDS011;61071;51.618;19.388;2023-06-14T05:36:16;7.68;;;5.00;;
72926;SDS011;61071;51.618;19.388;2023-06-14T05:38:42;12.07;;;4.72;;
72926;SDS011;61071;51.618;19.388;2023-06-14T05:41:07;14.30;;;5.18;;
72926;SDS011;61071;51.618;19.388;2023-06-14T05:43:32;5.07;;;4.53;;
72926;SDS011;61071;51.618;19.388;2023-06-14T05:45:58;8.13;;;4.50;;
72926;SDS011;61071;51.618;19.388;2023-06-14T05:48:23;8.15;;;4.95;;
72926;SDS011;61071;51.618;19.388;2023-06-14T05:50:49;10.38;;;5.00;;
72926;SDS011;61071;51.618;19.388;2023-06-14T05:53:14;10.38;;;4.50;;
72926;SDS011;61071;51.618;19.388;2023-06-14T05:55:39;10.63;;;5.00;;
72926;SDS011;61071;51.618;19.388;2023-06-14T05:58:05;8.40;;;4.45;;
72926;SDS011;61071;51.618;19.388;2023-06-14T06:00:30;7.97;;;4.60;;
72926;SDS011;61071;51.618;19.388;2023-06-14T06:02:56;5.32;;;4.15;;
72926;SDS011;61071;51.618;19.388;2023-06-14T06:05:22;6.00;;;4.35;;
72926;SDS011;61071;51.618;19.388;2023-06-14T06:07:48;5.30;;;4.38;;
72926;SDS011;61071;51.618;19.388;2023-06-14T06:10:14;11.82;;;4.90;;
72926;SDS011;61071;51.618;19.388;2023-06-14T06:12:40;9.20;;;4.50;;
72926;SDS011;61071;51.618;19.388;2023-06-14T06:15:07;8.45;;;4.93;;
72926;SDS011;61071;51.618;19.388;2023-06-14T06:17:32;7.80;;;4.47;;
72926;SDS011;61071;51.618;19.388;2023-06-14T06:19:58;8.13;;;5.05;;
72926;SDS011;61071;51.618;19.388;2023-06-14T06:22:24;9.60;;;5.65;;
72926;SDS011;61071;51.618;19.388;2023-06-14T06:24:49;9.65;;;4.82;;
72926;SDS011;61071;51.618;19.388;2023-06-14T06:27:15;8.88;;;4.53;;
72926;SDS011;61071;51.618;19.388;2023-06-14T06:29:41;8.88;;;4.45;;
72926;SDS011;61071;51.618;19.388;2023-06-14T06:32:08;4.93;;;3.97;;
72926;SDS011;61071;51.618;19.388;2023-06-14T06:34:34;9.70;;;4.28;;
72926;SDS011;61071;51.618;19.388;2023-06-14T06:37:00;6.32;;;4.10;;
72926;SDS011;61071;51.618;19.388;2023-06-14T06:39:26;7.63;;;4.30;;
72926;SDS011;61071;51.618;19.388;2023-06-14T06:41:51;6.35;;;4.13;;
72926;SDS011;61071;51.618;19.388;2023-06-14T06:44:17;6.85;;;4.25;;
72926;SDS011;61071;51.618;19.388;2023-06-14T06:46:43;5.85;;;4.07;;
72926;SDS011;61071;51.618;19.388;2023-06-14T06:49:09;6.32;;;3.83;;
72926;SDS011;61071;51.618;19.388;2023-06-14T06:51:36;6.05;;;3.53;;
72926;SDS011;61071;51.618;19.388;2023-06-14T06:54:02;10.82;;;3.75;;
72926;SDS011;61071;51.618;19.388;2023-06-14T06:56:28;9.50;;;3.88;;
72926;SDS011;61071;51.618;19.388;2023-06-14T06:58:53;7.30;;;4.38;;
72926;SDS011;61071;51.618;19.388;2023-06-14T07:01:19;14.18;;;4.15;;
72926;SDS011;61071;51.618;19.388;2023-06-14T07:03:44;4.13;;;3.67;;
72926;SDS011;61071;51.618;19.388;2023-06-14T07:06:11;5.82;;;3.90;;
72926;SDS011;61071;51.618;19.388;2023-06-14T07:08:37;6.78;;;3.78;;
72926;SDS011;61071;51.618;19.388;2023-06-14T07:11:06;4.50;;;3.65;;
72926;SDS011;61071;51.618;19.388;2023-06-14T07:13:32;4.90;;;3.72;;
72926;SDS011;61071;51.618;19.388;2023-06-14T07:15:58;5.70;;;3.72;;
72926;SDS011;61071;51.618;19.388;2023-06-14T07:18:25;6.70;;;3.78;;
72926;SDS011;61071;51.618;19.388;2023-06-14T07:20:51;9.20;;;3.78;;
72926;SDS011;61071;51.618;19.388;2023-06-14T07:23:18;8.18;;;3.75;;
72926;SDS011;61071;51.618;19.388;2023-06-14T07:25:45;7.05;;;3.40;;
72926;SDS011;61071;51.618;19.388;2023-06-14T07:28:10;9.73;;;3.70;;
72926;SDS011;61071;51.618;19.388;2023-06-14T07:30:35;6.82;;;3.38;;
72926;SDS011;61071;51.618;19.388;2023-06-14T07:33:01;4.68;;;3.30;;
72926;SDS011;61071;51.618;19.388;2023-06-14T07:35:26;5.88;;;3.20;;
72926;SDS011;61071;51.618;19.388;2023-06-14T07:37:52;5.40;;;3.42;;
72926;SDS011;61071;51.618;19.388;2023-06-14T07:40:17;6.90;;;3.45;;
72926;SDS011;61071;51.618;19.388;2023-06-14T07:42:43;10.10;;;3.80;;
72926;SDS011;61071;51.618;19.388;2023-06-14T07:45:08;6.90;;;3.65;;
72926;SDS011;61071;51.618;19.388;2023-06-14T07:47:34;8.93;;;3.65;;
72926;SDS011;61071;51.618;19.388;2023-06-14T07:50:00;6.25;;;3.40;;
72926;SDS011;61071;51.618;19.388;2023-06-14T07:52:25;6.40;;;3.90;;
72926;SDS011;61071;51.618;19.388;2023-06-14T07:54:50;7.82;;;4.03;;
72926;SDS011;61071;51.618;19.388;2023-06-14T07:57:16;8.63;;;3.70;;
72926;SDS011;61071;51.618;19.388;2023-06-14T07:59:41;7.68;;;3.97;;
72926;SDS011;61071;51.618;19.388;2023-06-14T08:02:07;7.20;;;3.47;;
72926;SDS011;61071;51.618;19.388;2023-06-14T08:04:32;6.63;;;3.65;;
72926;SDS011;61071;51.618;19.388;2023-06-14T08:06:58;5.43;;;3.80;;
72926;SDS011;61071;51.618;19.388;2023-06-14T08:09:24;5.40;;;3.80;;
72926;SDS011;61071;51.618;19.388;2023-06-14T08:11:50;5.82;;;3.38;;
72926;SDS011;61071;51.618;19.388;2023-06-14T08:14:15;5.35;;;3.50;;
72926;SDS011;61071;51.618;19.388;2023-06-14T08:16:41;5.85;;;3.17;;
72926;SDS011;61071;51.618;19.388;2023-06-14T08:19:07;6.55;;;3.45;;
72926;SDS011;61071;51.618;19.388;2023-06-14T08:21:32;6.05;;;3.40;;
72926;SDS011;61071;51.618;19.388;2023-06-14T08:23:58;4.05;;;3.65;;
72926;SDS011;61071;51.618;19.388;2023-06-14T08:26:24;8.18;;;3.70;;
72926;SDS011;61071;51.618;19.388;2023-06-14T08:28:54;6.43;;;3.90;;
72926;SDS011;61071;51.618;19.388;2023-06-14T08:31:20;5.90;;;3.35;;
72926;SDS011;61071;51.618;19.388;2023-06-14T08:33:46;8.65;;;4.13;;
72926;SDS011;61071;51.618;19.388;2023-06-14T08:36:11;6.72;;;3.90;;
72926;SDS011;61071;51.618;19.388;2023-06-14T08:38:37;9.20;;;3.40;;
72926;SDS011;61071;51.618;19.388;2023-06-14T08:41:04;5.45;;;3.58;;
72926;SDS011;61071;51.618;19.388;2023-06-14T08:43:33;8.05;;;3.80;;
72926;SDS011;61071;51.618;19.388;2023-06-14T08:46:00;8.48;;;3.58;;
72926;SDS011;61071;51.618;19.388;2023-06-14T08:48:31;6.78;;;3.63;;
72926;SDS011;61071;51.618;19.388;2023-06-14T08:50:59;9.80;;;4.00;;
72926;SDS011;61071;51.618;19.388;2023-06-14T08:53:30;6.35;;;4.25;;
72926;SDS011;61071;51.618;19.388;2023-06-14T08:55:59;7.03;;;3.83;;
72926;SDS011;61071;51.618;19.388;2023-06-14T08:58:30;5.68;;;3.50;;
72926;SDS011;61071;51.618;19.388;2023-06-14T09:00:57;5.72;;;3.85;;
72926;SDS011;61071;51.618;19.388;2023-06-14T09:03:24;5.45;;;3.92;;
72926;SDS011;61071;51.618;19.388;2023-06-14T09:05:54;6.63;;;3.95;;
72926;SDS011;61071;51.618;19.388;2023-06-14T09:08:24;6.40;;;4.00;;
72926;SDS011;61071;51.618;19.388;2023-06-14T09:10:51;4.80;;;3.70;;
72926;SDS011;61071;51.618;19.388;2023-06-14T09:13:17;4.72;;;3.55;;
72926;SDS011;61071;51.618;19.388;2023-06-14T09:15:42;6.70;;;3.80;;
72926;SDS011;61071;51.618;19.388;2023-06-14T09:18:08;10.82;;;3.95;;
72926;SDS011;61071;51.618;19.388;2023-06-14T09:20:34;4.05;;;3.40;;
72926;SDS011;61071;51.618;19.388;2023-06-14T09:23:00;4.68;;;3.83;;
72926;SDS011;61071;51.618;19.388;2023-06-14T09:25:27;4.90;;;4.13;;
72926;SDS011;61071;51.618;19.388;2023-06-14T09:27:53;7.30;;;3.70;;
72926;SDS011;61071;51.618;19.388;2023-06-14T09:30:19;8.15;;;3.88;;
72926;SDS011;61071;51.618;19.388;2023-06-14T09:32:45;6.10;;;3.90;;
72926;SDS011;61071;51.618;19.388;2023-06-14T09:35:11;6.72;;;3.88;;
72926;SDS011;61071;51.618;19.388;2023-06-14T09:37:37;9.00;;;4.00;;
72926;SDS011;61071;51.618;19.388;2023-06-14T09:40:03;5.28;;;3.85;;
72926;SDS011;61071;51.618;19.388;2023-06-14T09:42:31;7.03;;;3.60;;
72926;SDS011;61071;51.618;19.388;2023-06-14T09:45:00;4.15;;;3.50;;
72926;SDS011;61071;51.618;19.388;2023-06-14T09:47:27;6.25;;;3.60;;
72926;SDS011;61071;51.618;19.388;2023-06-14T09:49:53;4.85;;;3.85;;
72926;SDS011;61071;51.618;19.388;2023-06-14T09:52:20;5.78;;;4.00;;
72926;SDS011;61071;51.618;19.388;2023-06-14T09:54:48;7.60;;;4.40;;
72926;SDS011;61071;51.618;19.388;2023-06-14T09:57:15;5.95;;;4.15;;
72926;SDS011;61071;51.618;19.388;2023-06-14T09:59:45;7.85;;;3.55;;
72926;SDS011;61071;51.618;19.388;2023-06-14T10:02:18;8.15;;;4.45;;
72926;SDS011;61071;51.618;19.388;2023-06-14T10:04:53;6.10;;;4.07;;
72926;SDS011;61071;51.618;19.388;2023-06-14T10:07:26;6.05;;;3.55;;
72926;SDS011;61071;51.618;19.388;2023-06-14T10:09:55;6.88;;;4.10;;
72926;SDS011;61071;51.618;19.388;2023-06-14T10:12:21;8.23;;;3.70;;
72926;SDS011;61071;51.618;19.388;2023-06-14T10:14:51;7.53;;;3.80;;
72926;SDS011;61071;51.618;19.388;2023-06-14T10:17:22;6.72;;;4.25;;
72926;SDS011;61071;51.618;19.388;2023-06-14T10:20:14;9.30;;;4.22;;
72926;SDS011;61071;51.618;19.388;2023-06-14T10:22:49;5.60;;;3.78;;
72926;SDS011;61071;51.618;19.388;2023-06-14T10:25:28;6.68;;;3.95;;
72926;SDS011;61071;51.618;19.388;2023-06-14T10:31:01;7.07;;;4.28;;
72926;SDS011;61071;51.618;19.388;2023-06-14T10:33:31;4.35;;;3.90;;
72926;SDS011;61071;51.618;19.388;2023-06-14T10:36:06;6.63;;;3.58;;
72926;SDS011;61071;51.618;19.388;2023-06-14T10:41:51;8.80;;;4.03;;
72926;SDS011;61071;51.618;19.388;2023-06-14T10:46:46;8.20;;;3.75;;
72926;SDS011;61071;51.618;19.388;2023-06-14T10:49:17;7.03;;;4.05;;
72926;SDS011;61071;51.618;19.388;2023-06-14T10:51:44;6.28;;;4.32;;
72926;SDS011;61071;51.618;19.388;2023-06-14T10:54:15;9.13;;;4.00;;
72926;SDS011;61071;51.618;19.388;2023-06-14T10:56:51;6.38;;;4.45;;
72926;SDS011;61071;51.618;19.388;2023-06-14T10:59:19;7.00;;;4.38;;
72926;SDS011;61071;51.618;19.388;2023-06-14T11:01:50;4.78;;;4.07;;
72926;SDS011;61071;51.618;19.388;2023-06-14T11:04:51;15.35;;;4.88;;
72926;SDS011;61071;51.618;19.388;2023-06-14T11:10:18;6.07;;;4.25;;
72926;SDS011;61071;51.618;19.388;2023-06-14T11:13:05;5.72;;;3.75;;
72926;SDS011;61071;51.618;19.388;2023-06-14T11:15:32;5.97;;;4.10;;
72926;SDS011;61071;51.618;19.388;2023-06-14T11:18:00;6.32;;;4.13;;
72926;SDS011;61071;51.618;19.388;2023-06-14T11:20:35;10.23;;;3.78;;
72926;SDS011;61071;51.618;19.388;2023-06-14T11:23:01;6.30;;;3.90;;
72926;SDS011;61071;51.618;19.388;2023-06-14T11:25:28;5.75;;;3.80;;
72926;SDS011;61071;51.618;19.388;2023-06-14T11:27:54;11.25;;;4.50;;
72926;SDS011;61071;51.618;19.388;2023-06-14T11:30:20;5.55;;;4.10;;
72926;SDS011;61071;51.618;19.388;2023-06-14T11:32:47;7.10;;;3.83;;
72926;SDS011;61071;51.618;19.388;2023-06-14T11:35:14;6.25;;;4.00;;
72926;SDS011;61071;51.618;19.388;2023-06-14T11:37:41;7.60;;;4.13;;
72926;SDS011;61071;51.618;19.388;2023-06-14T11:40:08;6.47;;;4.10;;
72926;SDS011;61071;51.618;19.388;2023-06-14T11:42:35;7.50;;;4.10;;
72926;SDS011;61071;51.618;19.388;2023-06-14T11:45:01;11.25;;;4.57;;
72926;SDS011;61071;51.618;19.388;2023-06-14T11:47:31;6.90;;;4.55;;
72926;SDS011;61071;51.618;19.388;2023-06-14T11:49:58;9.73;;;4.63;;
72926;SDS011;61071;51.618;19.388;2023-06-14T11:52:25;7.47;;;4.57;;
72926;SDS011;61071;51.618;19.388;2023-06-14T11:54:50;8.82;;;4.70;;
72926;SDS011;61071;51.618;19.388;2023-06-14T11:57:17;8.60;;;4.68;;
72926;SDS011;61071;51.618;19.388;2023-06-14T11:59:44;7.38;;;3.97;;
72926;SDS011;61071;51.618;19.388;2023-06-14T12:02:13;7.25;;;4.30;;
72926;SDS011;61071;51.618;19.388;2023-06-14T12:04:43;8.02;;;4.30;;
72926;SDS011;61071;51.618;19.388;2023-06-14T12:07:10;8.50;;;4.90;;
72926;SDS011;61071;51.618;19.388;2023-06-14T12:09:41;8.88;;;4.55;;
72926;SDS011;61071;51.618;19.388;2023-06-14T12:12:11;9.20;;;5.55;;
72926;SDS011;61071;51.618;19.388;2023-06-14T12:14:37;9.50;;;4.57;;
72926;SDS011;61071;51.618;19.388;2023-06-14T12:17:06;6.35;;;4.80;;
72926;SDS011;61071;51.618;19.388;2023-06-14T12:19:32;7.10;;;4.93;;
72926;SDS011;61071;51.618;19.388;2023-06-14T12:22:06;6.32;;;4.60;;
72926;SDS011;61071;51.618;19.388;2023-06-14T12:24:34;5.65;;;4.45;;
72926;SDS011;61071;51.618;19.388;2023-06-14T12:26:59;9.43;;;4.50;;
72926;SDS011;61071;51.618;19.388;2023-06-14T12:29:27;9.30;;;5.25;;
72926;SDS011;61071;51.618;19.388;2023-06-14T12:31:53;5.90;;;4.40;;
72926;SDS011;61071;51.618;19.388;2023-06-14T12:34:21;9.20;;;5.28;;
72926;SDS011;61071;51.618;19.388;2023-06-14T12:36:52;7.40;;;4.10;;
72926;SDS011;61071;51.618;19.388;2023-06-14T12:39:21;8.82;;;4.10;;
72926;SDS011;61071;51.618;19.388;2023-06-14T12:41:47;5.95;;;3.75;;
72926;SDS011;61071;51.618;19.388;2023-06-14T12:44:14;5.25;;;4.43;;
72926;SDS011;61071;51.618;19.388;2023-06-14T12:46:40;8.20;;;4.20;;
72926;SDS011;61071;51.618;19.388;2023-06-14T12:49:08;5.90;;;3.75;;
72926;SDS011;61071;51.618;19.388;2023-06-14T12:51:36;10.20;;;3.75;;
72926;SDS011;61071;51.618;19.388;2023-06-14T12:54:02;9.55;;;3.92;;
72926;SDS011;61071;51.618;19.388;2023-06-14T12:56:28;6.35;;;3.95;;
72926;SDS011;61071;51.618;19.388;2023-06-14T12:58:53;5.65;;;3.70;;
72926;SDS011;61071;51.618;19.388;2023-06-14T13:01:19;7.25;;;3.88;;
72926;SDS011;61071;51.618;19.388;2023-06-14T13:03:45;6.63;;;3.60;;
72926;SDS011;61071;51.618;19.388;2023-06-14T13:06:12;5.38;;;3.25;;
72926;SDS011;61071;51.618;19.388;2023-06-14T13:08:38;5.63;;;3.55;;
72926;SDS011;61071;51.618;19.388;2023-06-14T13:11:03;8.75;;;3.25;;
72926;SDS011;61071;51.618;19.388;2023-06-14T13:13:29;6.03;;;3.85;;
72926;SDS011;61071;51.618;19.388;2023-06-14T13:15:54;5.90;;;3.75;;
72926;SDS011;61071;51.618;19.388;2023-06-14T13:18:20;4.57;;;3.63;;
72926;SDS011;61071;51.618;19.388;2023-06-14T13:20:46;8.32;;;4.00;;
72926;SDS011;61071;51.618;19.388;2023-06-14T13:23:12;9.48;;;4.05;;
72926;SDS011;61071;51.618;19.388;2023-06-14T13:25:38;14.50;;;4.15;;
72926;SDS011;61071;51.618;19.388;2023-06-14T13:28:04;6.18;;;3.90;;
72926;SDS011;61071;51.618;19.388;2023-06-14T13:30:31;9.07;;;3.58;;
72926;SDS011;61071;51.618;19.388;2023-06-14T13:32:58;8.02;;;3.90;;
72926;SDS011;61071;51.618;19.388;2023-06-14T13:35:24;14.63;;;3.95;;
72926;SDS011;61071;51.618;19.388;2023-06-14T13:37:50;6.70;;;3.05;;
72926;SDS011;61071;51.618;19.388;2023-06-14T13:40:16;6.32;;;3.60;;
72926;SDS011;61071;51.618;19.388;2023-06-14T13:42:41;8.10;;;3.42;;
72926;SDS011;61071;51.618;19.388;2023-06-14T13:45:07;6.43;;;3.20;;
72926;SDS011;61071;51.618;19.388;2023-06-14T13:47:35;6.28;;;3.20;;
72926;SDS011;61071;51.618;19.388;2023-06-14T13:50:01;6.15;;;3.15;;
72926;SDS011;61071;51.618;19.388;2023-06-14T13:52:27;6.82;;;2.90;;
72926;SDS011;61071;51.618;19.388;2023-06-14T13:54:53;8.07;;;2.92;;
72926;SDS011;61071;51.618;19.388;2023-06-14T13:57:19;3.72;;;2.38;;
72926;SDS011;61071;51.618;19.388;2023-06-14T13:59:44;3.65;;;2.72;;
72926;SDS011;61071;51.618;19.388;2023-06-14T14:02:10;10.68;;;2.80;;
72926;SDS011;61071;51.618;19.388;2023-06-14T14:04:36;4.47;;;2.90;;
72926;SDS011;61071;51.618;19.388;2023-06-14T14:07:03;4.32;;;3.08;;
72926;SDS011;61071;51.618;19.388;2023-06-14T14:09:32;4.70;;;3.15;;
72926;SDS011;61071;51.618;19.388;2023-06-14T14:12:02;9.00;;;3.55;;
72926;SDS011;61071;51.618;19.388;2023-06-14T14:14:29;6.50;;;3.30;;
72926;SDS011;61071;51.618;19.388;2023-06-14T14:16:57;3.88;;;3.25;;
72926;SDS011;61071;51.618;19.388;2023-06-14T14:19:22;7.63;;;4.18;;
72926;SDS011;61071;51.618;19.388;2023-06-14T14:21:48;7.63;;;4.43;;
72926;SDS011;61071;51.618;19.388;2023-06-14T14:24:13;6.43;;;4.18;;
72926;SDS011;61071;51.618;19.388;2023-06-14T14:26:39;11.27;;;4.68;;
72926;SDS011;61071;51.618;19.388;2023-06-14T14:29:05;8.55;;;5.18;;
72926;SDS011;61071;51.618;19.388;2023-06-14T14:31:31;7.72;;;4.40;;
72926;SDS011;61071;51.618;19.388;2023-06-14T14:33:57;9.82;;;5.60;;
72926;SDS011;61071;51.618;19.388;2023-06-14T14:36:22;7.95;;;5.22;;
72926;SDS011;61071;51.618;19.388;2023-06-14T14:38:48;8.52;;;5.65;;
72926;SDS011;61071;51.618;19.388;2023-06-14T14:41:13;11.35;;;5.45;;
72926;SDS011;61071;51.618;19.388;2023-06-14T14:43:39;8.57;;;5.20;;
72926;SDS011;61071;51.618;19.388;2023-06-14T14:46:04;9.15;;;4.95;;
72926;SDS011;61071;51.618;19.388;2023-06-14T14:48:30;8.32;;;4.72;;